Terminal Aerodrome Forecast
Issued by NWS Sioux Falls, SD

Home | Current Version | Previous Version | Graphics & Text | Print | Product List | Glossary Off
Versions: 1 2 3 4 5 6 7 8 9 10 11 12 13 14 15 16 17 18 19 20 21 22 23 24 25 26 27 28 29 30

000
FTUS43 KFSD 271131
TAFSUX
TAF
KSUX 271131Z 2712/2812 VRB04KT P6SM SCT200
     FM272100 17007KT P6SM OVC090
     FM280200 14008KT P6SM -SN SCT025 OVC040
     FM280600 12009KT P6SM SCT025 OVC050=

USA.gov is the U.S. government's official web portal to all federal, state and local government web resources and services.